Time;durP1;ratioP1;P1;durP2;ratioP2;P2;SDS_P1;SDS_P2;PMS_P1;PMS_P2;Temp;Humidity;BMP_temperature;BMP_pressure;BME280_temperature;BME280_humidity;BME280_pressure;Samples;Min_cycle;Max_cycle;Signal;HPM_P1;HPM_P2
2022/10/03 00:01:09;;;;;;;;;;;10.80;99.90;;;;;;12453940;28;19932;-87
2022/10/03 00:07:30;;;;;;;;;;;10.80;99.90;;;;;;12472085;28;19925;-87
2022/10/03 00:13:38;;;;;;;;;;;10.70;99.90;;;;;;12477836;28;19925;-87
2022/10/03 00:19:48;;;;;;;;;;;10.70;99.90;;;;;;12470113;28;19925;-87
2022/10/03 00:25:50;;;;;;;;;;;10.70;99.90;;;;;;12532551;28;19972;-87
2022/10/03 00:32:01;;;;;;;;;;;10.60;99.90;;;;;;12539415;28;19909;-87
2022/10/03 00:38:05;;;;;;;;;;;10.70;99.90;;;;;;12549462;28;19909;-87
2022/10/03 00:44:26;;;;;;;;;;;10.50;99.90;;;;;;12527612;28;20017;-87
2022/10/03 00:50:47;;;;;;;;;;;10.60;99.90;;;;;;12523355;28;20356;-87
2022/10/03 00:56:52;;;;;;;;;;;10.50;99.90;;;;;;12471325;28;19925;-87
2022/10/03 01:02:54;;;;;;;;;;;10.60;99.90;;;;;;12488658;28;19933;-87
2022/10/03 01:09:03;;;;;;;;;;;10.60;99.90;;;;;;12473368;28;19940;-86
2022/10/03 01:15:11;;;;;;;;;;;10.50;99.90;;;;;;12471542;28;19937;-87
2022/10/03 01:21:13;;;;;;;;;;;10.50;99.90;;;;;;12480261;28;19929;-87
2022/10/03 01:27:24;;;;;;;;;;;10.50;99.90;;;;;;12481196;28;19925;-87
2022/10/03 01:33:26;;;;;;;;;;;10.40;99.90;;;;;;12475723;28;19933;-86
2022/10/03 01:39:36;;;;;;;;;;;10.40;99.90;;;;;;12465828;28;19933;-87
2022/10/03 01:45:58;;;;;;;;;;;10.40;99.90;;;;;;12462435;28;19929;-87
2022/10/03 01:52:00;;;;;;;;;;;10.30;99.90;;;;;;12467726;28;21268;-87
2022/10/03 01:58:22;;;;;;;;;;;10.30;99.90;;;;;;12469456;28;19932;-87
2022/10/03 02:04:43;;;;;;;;;;;10.20;99.90;;;;;;12490032;28;19925;-87
2022/10/03 02:11:01;;;;;;;;;;;10.30;99.90;;;;;;12479634;28;19932;-86
2022/10/03 02:17:08;;;;;;;;;;;10.30;99.90;;;;;;12498202;28;19936;-87
2022/10/03 02:23:29;;;;;;;;;;;10.20;99.90;;;;;;12463781;28;20281;-86
2022/10/03 02:29:50;;;;;;;;;;;10.10;99.90;;;;;;12479136;28;19936;-86
2022/10/03 02:36:01;;;;;;;;;;;10.10;99.90;;;;;;12484913;28;19980;-86
2022/10/03 02:42:24;;;;;;;;;;;10.10;99.90;;;;;;12471059;28;19925;-86
2022/10/03 02:48:28;;;;;;;;;;;10.10;99.90;;;;;;12473852;28;20075;-86
2022/10/03 02:54:45;;;;;;;;;;;10.10;99.90;;;;;;12458746;28;20275;-87
2022/10/03 03:01:05;;;;;;;;;;;10.00;99.90;;;;;;12464806;28;19929;-86
2022/10/03 03:07:22;;;;;;;;;;;10.00;99.90;;;;;;12468092;28;19933;-86
2022/10/03 03:13:34;;;;;;;;;;;10.00;99.90;;;;;;12466873;28;20383;-86
2022/10/03 03:19:54;;;;;;;;;;;10.00;99.90;;;;;;12467000;28;20321;-86
2022/10/03 03:26:13;;;;;;;;;;;10.00;99.90;;;;;;12449842;28;19967;-86
2022/10/03 03:32:33;;;;;;;;;;;10.00;99.90;;;;;;12478292;28;20389;-86
2022/10/03 03:38:47;;;;;;;;;;;9.90;99.90;;;;;;12457125;28;19925;-86
2022/10/03 03:45:08;;;;;;;;;;;10.00;99.90;;;;;;12480012;28;19933;-86
2022/10/03 03:51:20;;;;;;;;;;;9.90;99.90;;;;;;12459018;28;20294;-86
2022/10/03 03:57:25;;;;;;;;;;;9.80;99.90;;;;;;12474654;28;19925;-86
2022/10/03 04:03:30;;;;;;;;;;;9.80;99.90;;;;;;12456979;28;19929;-86
2022/10/03 04:09:43;;;;;;;;;;;9.80;99.90;;;;;;12465200;28;19933;-87
2022/10/03 04:15:51;;;;;;;;;;;9.90;99.90;;;;;;12472793;28;19932;-86
2022/10/03 04:22:08;;;;;;;;;;;9.80;99.90;;;;;;12466679;28;19933;-86
2022/10/03 04:28:25;;;;;;;;;;;9.80;99.90;;;;;;12465797;28;20459;-86
2022/10/03 04:34:27;;;;;;;;;;;9.80;99.90;;;;;;12483665;28;20389;-86
2022/10/03 04:40:42;;;;;;;;;;;9.80;99.90;;;;;;12476650;28;19926;-86
2022/10/03 04:46:51;;;;;;;;;;;9.90;99.90;;;;;;12460554;28;19929;-86
2022/10/03 04:53:03;;;;;;;;;;;9.80;99.90;;;;;;12473336;28;19925;-86
2022/10/03 04:59:18;;;;;;;;;;;9.70;99.90;;;;;;12462509;28;19936;-86
2022/10/03 05:05:24;;;;;;;;;;;9.70;99.90;;;;;;12481275;28;19925;-86
2022/10/03 05:11:35;;;;;;;;;;;9.70;99.90;;;;;;12475159;28;19929;-86
2022/10/03 05:17:57;;;;;;;;;;;9.80;99.90;;;;;;12480424;28;19929;-86
2022/10/03 05:24:19;;;;;;;;;;;9.80;99.90;;;;;;12465121;28;20290;-86
2022/10/03 05:30:39;;;;;;;;;;;9.80;99.90;;;;;;12447904;28;19933;-87
2022/10/03 05:36:41;;;;;;;;;;;9.80;99.90;;;;;;12466804;28;19929;-87
2022/10/03 05:42:45;;;;;;;;;;;9.90;99.90;;;;;;12474511;28;20391;-87
2022/10/03 05:49:05;;;;;;;;;;;9.90;99.90;;;;;;12462819;28;19929;-87
2022/10/03 05:55:17;;;;;;;;;;;9.90;99.90;;;;;;12461230;28;19933;-87
2022/10/03 06:01:48;;;;;;;;;;;10.00;99.90;;;;;;12480906;28;20293;-87
2022/10/03 06:08:02;;;;;;;;;;;10.00;99.90;;;;;;12445388;28;20727;-87
2022/10/03 06:14:37;;;;;;;;;;;10.10;99.90;;;;;;12463055;28;19932;-87
2022/10/03 06:20:57;;;;;;;;;;;10.10;99.90;;;;;;12435546;28;19940;-87
2022/10/03 06:27:18;;;;;;;;;;;10.20;99.90;;;;;;12465683;28;19925;-86
2022/10/03 06:33:28;;;;;;;;;;;10.20;99.90;;;;;;12463929;28;19929;-87
2022/10/03 06:39:52;;;;;;;;;;;10.20;99.90;;;;;;12461948;28;20400;-86
2022/10/03 06:46:10;;;;;;;;;;;10.20;99.90;;;;;;12452258;28;19932;-86
2022/10/03 06:52:31;;;;;;;;;;;10.20;99.90;;;;;;12469054;28;19925;-86
2022/10/03 06:58:51;;;;;;;;;;;10.20;99.90;;;;;;12457202;28;19926;-86
2022/10/03 07:04:56;;;;;;;;;;;10.30;99.90;;;;;;12455625;28;19929;-87
2022/10/03 07:10:58;;;;;;;;;;;10.40;99.90;;;;;;12466857;28;19929;-87
2022/10/03 07:17:18;;;;;;;;;;;10.40;99.90;;;;;;12456992;28;19925;-87
2022/10/03 07:23:40;;;;;;;;;;;10.50;99.90;;;;;;12475382;28;20003;-87
2022/10/03 07:29:57;;;;;;;;;;;10.50;99.90;;;;;;12456968;28;19930;-87
2022/10/03 07:42:35;;;;;;;;;;;10.80;99.90;;;;;;12462233;28;21201;-87
2022/10/03 07:48:49;;;;;;;;;;;10.80;99.90;;;;;;12460929;28;19936;-87
2022/10/03 07:55:09;;;;;;;;;;;10.90;99.90;;;;;;12463236;28;19929;-87
2022/10/03 08:01:29;;;;;;;;;;;11.00;99.90;;;;;;12476205;28;19929;-87
2022/10/03 08:07:34;;;;;;;;;;;11.10;99.90;;;;;;12457565;28;19925;-87
2022/10/03 08:13:59;;;;;;;;;;;11.10;99.90;;;;;;12466748;28;19941;-86
2022/10/03 08:20:16;;;;;;;;;;;11.20;99.90;;;;;;12470260;28;19925;-86
2022/10/03 08:26:17;;;;;;;;;;;11.40;99.90;;;;;;12455841;28;20531;-87
2022/10/03 08:32:28;;;;;;;;;;;11.50;99.90;;;;;;12458831;28;19933;-87
2022/10/03 08:38:36;;;;;;;;;;;11.60;99.90;;;;;;12455464;28;19933;-87
2022/10/03 08:44:43;;;;;;;;;;;11.80;99.90;;;;;;12462962;28;19929;-87
2022/10/03 08:50:45;;;;;;;;;;;12.00;99.90;;;;;;12452873;28;19930;-87
2022/10/03 08:57:07;;;;;;;;;;;12.20;99.90;;;;;;12460331;28;19926;-86
2022/10/03 09:03:23;;;;;;;;;;;12.30;99.90;;;;;;12484064;28;19925;-87
2022/10/03 09:09:42;;;;;;;;;;;12.50;99.90;;;;;;12471778;28;19929;-87
2022/10/03 09:16:07;;;;;;;;;;;12.60;99.90;;;;;;12467130;28;19953;-87
2022/10/03 09:22:48;;;;;;;;;;;12.60;99.90;;;;;;12470010;28;19926;-87
2022/10/03 09:29:19;;;;;;;;;;;12.80;99.90;;;;;;12291758;28;19934;-87
2022/10/03 09:35:32;;;;;;;;;;;12.90;99.90;;;;;;12456198;28;19925;-87
2022/10/03 09:42:06;;;;;;;;;;;13.20;99.90;;;;;;12465755;28;19925;-87
2022/10/03 09:48:25;;;;;;;;;;;13.20;99.90;;;;;;12421751;28;19941;-87
2022/10/03 09:54:34;;;;;;;;;;;13.20;99.90;;;;;;12462044;28;20305;-87
2022/10/03 10:00:54;;;;;;;;;;;13.30;99.90;;;;;;12467022;28;19929;-87
2022/10/03 10:07:15;;;;;;;;;;;13.30;99.90;;;;;;12460621;28;19925;-87
2022/10/03 10:13:17;;;;;;;;;;;13.40;99.90;;;;;;12474092;28;19932;-87
2022/10/03 10:19:24;;;;;;;;;;;13.50;99.90;;;;;;12458220;28;19948;-86
2022/10/03 10:25:45;;;;;;;;;;;13.40;99.90;;;;;;12467363;28;19935;-87
2022/10/03 10:31:51;;;;;;;;;;;13.40;99.90;;;;;;12470571;28;20328;-87
2022/10/03 10:38:03;;;;;;;;;;;13.90;99.90;;;;;;12467310;28;19932;-87
2022/10/03 10:44:23;;;;;;;;;;;14.50;99.90;;;;;;12464942;28;19933;-87
2022/10/03 10:50:43;;;;;;;;;;;14.70;99.90;;;;;;12463619;28;19925;-88
2022/10/03 10:57:08;;;;;;;;;;;14.70;99.90;;;;;;12465509;28;20300;-87
2022/10/03 11:03:28;;;;;;;;;;;14.70;99.90;;;;;;12460179;28;19925;-88
2022/10/03 11:09:49;;;;;;;;;;;14.90;99.90;;;;;;12465796;28;19926;-88
2022/10/03 11:16:00;;;;;;;;;;;14.70;99.90;;;;;;12463163;28;19929;-88
2022/10/03 11:22:17;;;;;;;;;;;14.90;99.90;;;;;;12474221;28;20416;-88
2022/10/03 11:28:37;;;;;;;;;;;14.90;99.90;;;;;;12466702;28;19940;-88
2022/10/03 11:34:58;;;;;;;;;;;14.50;99.90;;;;;;12465035;28;20032;-88
2022/10/03 11:41:18;;;;;;;;;;;14.30;99.90;;;;;;12463117;28;20305;-87
2022/10/03 11:47:31;;;;;;;;;;;14.90;99.90;;;;;;12473202;28;20500;-88
2022/10/03 11:53:51;;;;;;;;;;;15.40;99.90;;;;;;12466414;28;20013;-88
2022/10/03 12:00:20;;;;;;;;;;;15.40;99.90;;;;;;12459531;28;19926;-88
2022/10/03 12:12:53;;;;;;;;;;;16.30;99.90;;;;;;12475303;28;19926;-88
2022/10/03 12:19:00;;;;;;;;;;;16.40;99.90;;;;;;12464709;28;19933;-88
2022/10/03 12:25:14;;;;;;;;;;;16.60;99.90;;;;;;12464202;28;20293;-88
2022/10/03 12:31:23;;;;;;;;;;;16.50;99.90;;;;;;12463890;28;19936;-88
2022/10/03 12:37:33;;;;;;;;;;;16.40;99.90;;;;;;12466668;28;19929;-88
2022/10/03 12:43:54;;;;;;;;;;;15.90;99.90;;;;;;12478741;28;19925;-88
2022/10/03 12:50:12;;;;;;;;;;;15.80;99.90;;;;;;12459824;28;19936;-88
2022/10/03 12:56:18;;;;;;;;;;;15.70;99.90;;;;;;12475165;28;19925;-88
2022/10/03 13:02:34;;;;;;;;;;;15.50;99.90;;;;;;12468075;28;20308;-88
2022/10/03 13:08:54;;;;;;;;;;;15.30;99.90;;;;;;12482222;28;20384;-88
2022/10/03 13:15:15;;;;;;;;;;;15.10;99.90;;;;;;12473755;28;19929;-87
2022/10/03 13:21:16;;;;;;;;;;;15.10;99.90;;;;;;12465641;28;19925;-87
2022/10/03 13:27:38;;;;;;;;;;;15.00;99.90;;;;;;12467710;28;19925;-87
2022/10/03 13:33:42;;;;;;;;;;;15.00;99.90;;;;;;12471445;28;19955;-87
2022/10/03 13:39:47;;;;;;;;;;;14.90;99.90;;;;;;12460568;28;20373;-87
2022/10/03 13:45:50;;;;;;;;;;;14.90;99.90;;;;;;12462290;28;19926;-87
2022/10/03 13:51:58;;;;;;;;;;;14.80;99.90;;;;;;12464396;28;19929;-87
2022/10/03 13:58:08;;;;;;;;;;;14.90;99.90;;;;;;12450595;28;19930;-87
2022/10/03 14:04:29;;;;;;;;;;;15.10;99.90;;;;;;12480063;28;19928;-87
2022/10/03 14:10:54;;;;;;;;;;;15.30;99.90;;;;;;12466888;28;19925;-87
2022/10/03 14:17:14;;;;;;;;;;;15.20;99.90;;;;;;12467743;28;19925;-86
2022/10/03 14:23:22;;;;;;;;;;;15.20;99.90;;;;;;12475463;28;19976;-87
2022/10/03 14:29:32;;;;;;;;;;;15.40;99.90;;;;;;12462594;28;19937;-87
2022/10/03 14:35:40;;;;;;;;;;;15.50;99.90;;;;;;12464907;28;19930;-87
2022/10/03 14:42:05;;;;;;;;;;;15.40;99.90;;;;;;12458292;28;19926;-86
2022/10/03 14:48:12;;;;;;;;;;;15.20;99.90;;;;;;12433716;28;19925;-86
2022/10/03 14:54:13;;;;;;;;;;;15.20;99.90;;;;;;12458724;28;19936;-87
2022/10/03 15:00:26;;;;;;;;;;;15.20;99.90;;;;;;12478387;28;19928;-87
2022/10/03 15:06:34;;;;;;;;;;;15.20;99.90;;;;;;12479467;28;20480;-87
2022/10/03 15:12:38;;;;;;;;;;;15.00;99.90;;;;;;12472822;28;19928;-87
2022/10/03 15:18:43;;;;;;;;;;;14.90;99.90;;;;;;12465274;28;19932;-87
2022/10/03 15:24:45;;;;;;;;;;;14.90;99.90;;;;;;12449013;28;19940;-87
2022/10/03 15:30:49;;;;;;;;;;;14.80;99.90;;;;;;12467699;28;20416;-87
2022/10/03 15:36:54;;;;;;;;;;;14.60;99.90;;;;;;12465156;28;20008;-87
2022/10/03 15:43:06;;;;;;;;;;;14.50;99.90;;;;;;12470598;28;20301;-87
2022/10/03 15:49:16;;;;;;;;;;;14.40;99.90;;;;;;12454047;28;19929;-87
2022/10/03 15:55:19;;;;;;;;;;;14.40;99.90;;;;;;12451391;28;19933;-88
2022/10/03 16:01:28;;;;;;;;;;;14.30;99.90;;;;;;12467908;28;19933;-88
2022/10/03 16:07:42;;;;;;;;;;;14.10;99.90;;;;;;12456122;28;19933;-88
2022/10/03 16:13:47;;;;;;;;;;;14.10;99.90;;;;;;12470243;28;20393;-88
2022/10/03 16:19:59;;;;;;;;;;;14.00;99.90;;;;;;12454644;28;19944;-88
2022/10/03 16:26:11;;;;;;;;;;;14.00;99.90;;;;;;12451672;28;19968;-88
2022/10/03 16:32:16;;;;;;;;;;;13.90;99.90;;;;;;12467274;28;19925;-87
2022/10/03 16:38:44;;;;;;;;;;;13.80;99.90;;;;;;12460475;28;19929;-87
2022/10/03 16:44:45;;;;;;;;;;;13.70;99.90;;;;;;12448834;28;19926;-87
2022/10/03 16:50:50;;;;;;;;;;;13.60;99.90;;;;;;12461552;28;19930;-87
2022/10/03 16:56:59;;;;;;;;;;;13.50;99.90;;;;;;12462006;28;19926;-88
2022/10/03 17:03:03;;;;;;;;;;;13.30;99.90;;;;;;12467024;28;20404;-87
2022/10/03 17:09:18;;;;;;;;;;;13.40;99.90;;;;;;12467144;28;19936;-86
2022/10/03 17:15:21;;;;;;;;;;;13.20;99.90;;;;;;12474795;28;19930;-87
2022/10/03 17:21:27;;;;;;;;;;;13.10;99.90;;;;;;12471133;28;19930;-87
2022/10/03 17:27:39;;;;;;;;;;;13.00;99.90;;;;;;12467009;28;19979;-87
2022/10/03 17:33:44;;;;;;;;;;;13.00;99.90;;;;;;12476152;28;19929;-87
2022/10/03 17:39:57;;;;;;;;;;;13.00;99.90;;;;;;12476032;28;19926;-87
2022/10/03 17:46:17;;;;;;;;;;;12.90;99.90;;;;;;12461058;28;19941;-87
2022/10/03 17:52:22;;;;;;;;;;;12.80;99.90;;;;;;12474618;28;19925;-87
2022/10/03 17:58:25;;;;;;;;;;;12.70;99.90;;;;;;12467396;28;19925;-87
2022/10/03 18:04:38;;;;;;;;;;;12.60;99.90;;;;;;12468221;28;19953;-87
2022/10/03 18:10:45;;;;;;;;;;;12.60;99.90;;;;;;12474689;28;20076;-87
2022/10/03 18:16:58;;;;;;;;;;;12.40;99.90;;;;;;12476967;28;19925;-86
2022/10/03 18:23:02;;;;;;;;;;;12.40;99.90;;;;;;12464755;28;19925;-87
2022/10/03 18:29:24;;;;;;;;;;;12.40;99.90;;;;;;12469579;28;19930;-87
2022/10/03 18:35:28;;;;;;;;;;;12.30;99.90;;;;;;12460538;28;19929;-87
2022/10/03 18:41:29;;;;;;;;;;;12.30;99.90;;;;;;12467287;28;19925;-87
2022/10/03 18:47:36;;;;;;;;;;;12.20;99.90;;;;;;12463632;28;19933;-87
2022/10/03 18:53:43;;;;;;;;;;;12.20;99.90;;;;;;12463435;28;19971;-86
2022/10/03 18:59:57;;;;;;;;;;;12.20;99.90;;;;;;12458289;28;19929;-86
2022/10/03 19:06:02;;;;;;;;;;;12.20;99.90;;;;;;12465173;28;19925;-86
2022/10/03 19:12:09;;;;;;;;;;;12.10;99.90;;;;;;12470325;28;20308;-87
2022/10/03 19:18:13;;;;;;;;;;;12.00;99.90;;;;;;12466183;28;20503;-87
2022/10/03 19:24:20;;;;;;;;;;;12.00;99.90;;;;;;12459938;28;19933;-87
2022/10/03 19:30:42;;;;;;;;;;;12.00;99.90;;;;;;12456104;28;19929;-86
2022/10/03 19:36:45;;;;;;;;;;;11.90;99.90;;;;;;12468147;28;19940;-87
2022/10/03 19:42:50;;;;;;;;;;;11.90;99.90;;;;;;12478103;28;19929;-87
2022/10/03 19:49:08;;;;;;;;;;;11.80;99.90;;;;;;12472488;28;19937;-87
2022/10/03 19:55:16;;;;;;;;;;;11.80;99.90;;;;;;12476307;28;20266;-87
2022/10/03 20:01:18;;;;;;;;;;;11.80;99.90;;;;;;12482128;28;19957;-86
2022/10/03 20:07:35;;;;;;;;;;;11.70;99.90;;;;;;12525054;28;19935;-87
2022/10/03 20:13:46;;;;;;;;;;;11.80;99.90;;;;;;12537664;28;19929;-88
2022/10/03 20:19:53;;;;;;;;;;;11.80;99.90;;;;;;12524136;28;19935;-87
2022/10/03 20:25:58;;;;;;;;;;;11.70;99.90;;;;;;12516938;28;20000;-87
2022/10/03 20:32:01;;;;;;;;;;;11.70;99.90;;;;;;12510330;28;19925;-87
2022/10/03 20:38:18;;;;;;;;;;;11.60;99.90;;;;;;12469036;28;20374;-86
2022/10/03 20:44:40;;;;;;;;;;;11.60;99.90;;;;;;12467580;28;19925;-87
2022/10/03 20:50:45;;;;;;;;;;;11.60;99.90;;;;;;12466214;28;19934;-87
2022/10/03 20:56:55;;;;;;;;;;;11.60;99.90;;;;;;12476736;28;19930;-87
2022/10/03 21:03:00;;;;;;;;;;;11.60;99.90;;;;;;12474697;28;19933;-87
2022/10/03 21:09:04;;;;;;;;;;;11.60;99.90;;;;;;12485471;28;19936;-87
2022/10/03 21:15:10;;;;;;;;;;;11.60;99.90;;;;;;12472225;28;19932;-87
2022/10/03 21:21:18;;;;;;;;;;;11.60;99.90;;;;;;12476251;28;20067;-87
2022/10/03 21:27:21;;;;;;;;;;;12.00;99.90;;;;;;12469906;28;19933;-87
2022/10/03 21:33:29;;;;;;;;;;;11.80;99.90;;;;;;12476782;28;19929;-87
2022/10/03 21:39:37;;;;;;;;;;;11.60;99.90;;;;;;12471486;28;19926;-86
2022/10/03 21:45:38;;;;;;;;;;;11.50;99.90;;;;;;12468472;28;19926;-87
2022/10/03 21:51:46;;;;;;;;;;;11.60;99.90;;;;;;12468377;28;20339;-86
2022/10/03 21:57:51;;;;;;;;;;;11.60;99.90;;;;;;12488278;28;19925;-86
2022/10/03 22:04:14;;;;;;;;;;;11.60;99.90;;;;;;12479824;28;19929;-86
2022/10/03 22:10:20;;;;;;;;;;;11.40;99.90;;;;;;12481135;28;19925;-86
2022/10/03 22:16:42;;;;;;;;;;;11.40;99.90;;;;;;12473795;28;19933;-86
2022/10/03 22:23:03;;;;;;;;;;;11.30;99.90;;;;;;12463634;28;19926;-86
2022/10/03 22:29:17;;;;;;;;;;;11.30;99.90;;;;;;12466813;28;20302;-86
2022/10/03 22:35:42;;;;;;;;;;;11.20;99.90;;;;;;12455521;28;20076;-86
2022/10/03 22:41:52;;;;;;;;;;;11.20;99.90;;;;;;12465251;28;20301;-86
2022/10/03 22:47:55;;;;;;;;;;;11.10;99.90;;;;;;12454607;28;19936;-86
2022/10/03 22:53:58;;;;;;;;;;;10.80;99.90;;;;;;12460501;28;20360;-86
2022/10/03 23:00:26;;;;;;;;;;;10.70;99.90;;;;;;12466851;28;19932;-86
2022/10/03 23:06:47;;;;;;;;;;;10.70;99.90;;;;;;12455712;28;19933;-86
2022/10/03 23:12:59;;;;;;;;;;;10.70;99.90;;;;;;12471688;28;19933;-86
2022/10/03 23:19:13;;;;;;;;;;;11.00;99.90;;;;;;12482858;28;19925;-86
2022/10/03 23:25:17;;;;;;;;;;;11.00;99.90;;;;;;12462775;28;20297;-86
2022/10/03 23:31:37;;;;;;;;;;;10.70;99.90;;;;;;12470766;28;19925;-86
2022/10/03 23:37:40;;;;;;;;;;;10.80;99.90;;;;;;12462770;28;19929;-86
2022/10/03 23:43:47;;;;;;;;;;;11.00;99.90;;;;;;12466723;28;19972;-86
2022/10/03 23:49:50;;;;;;;;;;;11.00;99.90;;;;;;12461709;28;19936;-87
2022/10/03 23:55:51;;;;;;;;;;;10.90;99.90;;;;;;12457437;28;19929;-86
